Truckee Tahoe Airport Truckee US
ICAO: KTRK
IATA: TRK
Category: Medium
Scheduled Services: No

Elevation: 5900 ft
TransAlt. 18000 ft.

Airport Communications:
AWOS 3:118
OAKLAND CNTR:127.95
CTAF/UNICOM:122.8

KTRK Zoom In..

If you have problems with the map follow the link
https://www.worldairports.se/pages/airport.php?
ICAO=KTRK

Runways:

(A) RW 01 length 4650 ft width 75 ft
---- / hdg 14

(B) RW 10 length 7000 ft width 100 ft
---- / hdg 104

(C) RW 19 length 4650 ft width 75 ft
---- / hdg 194

(D) RW 28 length 7000 ft width 100 ft
---- / hdg 284

Location; KTRK
Day. 16 / Time. 02.35 Zulu
* Altimeter: 30.18
* Temperature: -06° c. -21.2°f.
* Wind from: KTR° Speed K kn.
Dewpoint: -08° c.
Visibility: 10 Statute Miles.
Clouds: Clear (automated report).

KTRK 160235Z AUTO 00000KT 10SM CLR M06/M08 A3018 RMK AO2


Wind From KTR°
Speed K kn.

 
 
jpsmedia worldairports.se 2019   terms of use